Dewey, OK

10:50 AM CDT on August 30, 2014 (GMT -0500)
Independence Municipal | Change Station
CLOSE
Current Station
Airport
Location: Independence,
Elevation: 823 ft
Nearby Weather Stations

Elev 823 ft 37.16 °N, 95.78 °W | Updated 15 minutes ago

Clear
Clear
79 °F
Feels Like 79 °F
N
0
Wind Variable Wind from North

Today
High -- | Low -- °F
--% Chance of Precip.
Yesterday
High -- | Low -- °F
Precip. -- in
6:53 AM 7:54 PM
Waxing Crescent, 22% visible
Pressure 29.95 in
Visibility 10.0 miles
Clouds Clear
Dew Point 68 °F
Humidity 69%
Rainfall 0.00 in
Snow Depth Not available.
UV 6 out of 12
Pollen 9.70 out of 12
Air Quality Not available.
Flu Activity Not available.
METAR KIDP 301535Z AUTO 00000KT 10SM CLR 26/20 A2995 RMK AO2

More Conditions Fewer Conditions

Pressure 29.95 in
Visibility 10.0 miles
Clouds Clear
Dew Point 68 °F
Humidity 69%
Rainfall 0.00 in
Snow Depth Not available.
UV 6 out of 12
Pollen 9.70 out of 12
Air Quality Not available.
Flu Activity Not available.
METAR KIDP 301535Z AUTO 00000KT 10SM CLR 26/20 A2995 RMK AO2

More Conditions Fewer Conditions

Nowcast | as of 10:27 am CDT on August 30, 2014

At 10:27 am...weather radars detected a small area of light to moderate showers southeast of a Prairie Grove Arkansas to Stigler Oklahoma line. Movement was to the northeast at 20 mph. Through 12:00 PM...this activity will continue across far eastern Oklahoma and northwest Arkansas. Measurable rainfall will be confined to less than two tenths of an inch.

×

10-Day Weather Forecast

Almanac

Astronomy

Aug. 30, 2014 Rise Set
Actual Time 6:53 AM CDT 7:54 PM CDT
Civil Twilight 6:26 AM CDT 8:21 PM CDT
Nautical Twilight 5:55 AM CDT 8:52 PM CDT
Astronomical Twilight 5:22 AM CDT 9:25 PM CDT
Moon 11:33 AM CDT 10:38 PM CDT
Length of Visible Light 13h 54m
Length of Day
13h 01m
Tomorrow will be 2m 13s shorter.
Waxing Crescent, 22% of the Moon is Illuminated
Today
Waxing Crescent
Sep 2
First Quarter
Sep 8
Full
Sep 15
Last Quarter
Sep 24
New

Today's Extremes

State Highs State Lows

Community

WunderPhotos

Upload Photos

1,748,550 photos uploaded!

WunderBlogs® & News

Nearby

Snow Depth

Station Depth Elevation
No new snow has been reported.

Earthquake Activity

City Distance Mag. Time & Date
Guthrie, Oklahoma 103 miles 3.2 10:39 AM CDT
2014-08-29
Perry, Oklahoma 97 miles 3.0 4:52 AM CDT
2014-08-29
Perry, Oklahoma 93 miles 3.1 10:01 PM CDT
2014-08-28
Minimum magnitude displayed is 2.5.

Coastal Water Temperatures

Place Temperature
No Stations Reporting

Nearby Weather Stations